Time;durP1;ratioP1;P1;durP2;ratioP2;P2;SDS_P1;SDS_P2;PMS_P1;PMS_P2;Temp;Humidity;BMP_temperature;BMP_pressure;BME280_temperature;BME280_humidity;BME280_pressure;Samples;Min_cycle;Max_cycle;Signal;HPM_P1;HPM_P2
2024/01/09 00:00:15;;;;;;;6.28;5.78;;;17.10;58.50;;;;;;5004696;28;20459;-88
2024/01/09 00:02:41;;;;;;;6.22;5.70;;;17.10;58.40;;;;;;5007697;28;20045;-86
2024/01/09 00:05:07;;;;;;;6.18;5.63;;;17.10;58.70;;;;;;5011592;28;20057;-86
2024/01/09 00:07:32;;;;;;;6.50;5.90;;;17.10;58.60;;;;;;5024640;28;20045;-83
2024/01/09 00:09:58;;;;;;;6.35;5.75;;;17.10;58.40;;;;;;5020355;28;20630;-83
2024/01/09 00:12:23;;;;;;;6.00;5.50;;;17.10;58.60;;;;;;5019372;28;20037;-83
2024/01/09 00:14:49;;;;;;;7.20;6.60;;;17.10;58.70;;;;;;5007622;28;20068;-83
2024/01/09 00:17:14;;;;;;;6.18;5.68;;;17.00;58.40;;;;;;5023110;28;20550;-83
2024/01/09 00:19:40;;;;;;;6.13;5.63;;;17.00;58.60;;;;;;5003411;28;20395;-83
2024/01/09 00:22:06;;;;;;;5.53;5.13;;;17.00;58.60;;;;;;5003465;28;20060;-83
2024/01/09 00:24:31;;;;;;;5.88;5.28;;;17.00;58.80;;;;;;5025313;28;20038;-86
2024/01/09 00:26:57;;;;;;;5.90;5.40;;;17.00;58.80;;;;;;5023252;28;20091;-87
2024/01/09 00:29:22;;;;;;;5.32;4.93;;;17.00;58.80;;;;;;5018997;28;20073;-86
2024/01/09 00:31:48;;;;;;;5.75;5.25;;;16.90;59.80;;;;;;5021829;28;20084;-87
2024/01/09 00:34:13;;;;;;;5.50;5.10;;;16.90;58.90;;;;;;5017334;28;20132;-86
2024/01/09 00:36:43;;;;;;;5.28;4.88;;;16.90;59.50;;;;;;5015159;28;20041;-86
2024/01/09 00:39:09;;;;;;;5.47;5.00;;;16.90;58.80;;;;;;5025039;28;20403;-87
2024/01/09 00:41:34;;;;;;;4.95;4.55;;;16.90;58.70;;;;;;5020220;28;20057;-86
2024/01/09 00:44:00;;;;;;;5.55;5.05;;;16.80;58.70;;;;;;5024312;28;20034;-86
2024/01/09 00:46:27;;;;;;;5.10;4.68;;;16.80;58.60;;;;;;5019611;28;20041;-86
2024/01/09 00:48:53;;;;;;;4.60;4.30;;;16.80;58.60;;;;;;5000363;28;20522;-87
2024/01/09 00:51:18;;;;;;;4.75;4.35;;;16.80;58.70;;;;;;4996941;28;20057;-87
2024/01/09 00:53:44;;;;;;;4.30;4.00;;;16.80;58.60;;;;;;5001921;28;20559;-87
2024/01/09 00:56:09;;;;;;;4.53;4.22;;;16.80;58.80;;;;;;5002553;28;20031;-88
2024/01/09 00:58:35;;;;;;;4.57;4.28;;;16.80;58.90;;;;;;5004601;28;20038;-83
2024/01/09 01:01:00;;;;;;;4.85;4.45;;;16.80;58.90;;;;;;5001819;28;20042;-83
2024/01/09 01:03:26;;;;;;;4.40;4.10;;;16.80;58.80;;;;;;4988438;28;20416;-83
2024/01/09 01:05:51;;;;;;;4.47;4.10;;;16.80;59.00;;;;;;5004093;28;20049;-83
2024/01/09 01:08:17;;;;;;;4.35;4.05;;;16.80;58.80;;;;;;4989481;28;20491;-86
2024/01/09 01:10:43;;;;;;;4.80;4.40;;;16.70;58.90;;;;;;5005261;28;20072;-88
2024/01/09 01:13:08;;;;;;;4.20;3.90;;;16.70;59.00;;;;;;5001932;28;20496;-86
2024/01/09 01:15:34;;;;;;;4.18;3.88;;;16.70;59.00;;;;;;4991822;28;20042;-86
2024/01/09 01:17:59;;;;;;;4.25;3.95;;;16.70;59.10;;;;;;5001704;28;20046;-86
2024/01/09 01:20:25;;;;;;;4.20;3.90;;;16.70;59.00;;;;;;5026147;28;20049;-85
2024/01/09 01:22:51;;;;;;;4.32;4.03;;;16.70;59.80;;;;;;5025538;28;20056;-85
2024/01/09 01:25:16;;;;;;;3.92;3.63;;;16.60;59.00;;;;;;5028191;28;20041;-85
2024/01/09 01:27:42;;;;;;;4.68;4.30;;;16.60;59.00;;;;;;5002209;28;20048;-84
2024/01/09 01:30:07;;;;;;;3.63;3.42;;;16.60;59.20;;;;;;5049942;28;20118;-85
2024/01/09 01:32:33;;;;;;;4.07;3.80;;;16.60;59.10;;;;;;5016449;28;20060;-85
2024/01/09 01:34:59;;;;;;;4.10;3.80;;;16.60;59.30;;;;;;5021703;28;20128;-84
2024/01/09 01:37:24;;;;;;;4.35;4.05;;;16.60;59.20;;;;;;5022183;28;20038;-84
2024/01/09 01:39:50;;;;;;;4.20;3.90;;;16.60;59.20;;;;;;4997392;28;20054;-84
2024/01/09 01:42:15;;;;;;;4.00;3.70;;;16.50;59.20;;;;;;5010651;28;20048;-84
2024/01/09 01:44:41;;;;;;;4.10;3.80;;;16.60;59.30;;;;;;5014231;28;20045;-84
2024/01/09 01:47:07;;;;;;;3.92;3.63;;;16.50;59.40;;;;;;5002858;28;20042;-84
2024/01/09 01:49:32;;;;;;;4.05;3.85;;;16.50;59.30;;;;;;5018857;28;20381;-84
2024/01/09 01:51:58;;;;;;;4.07;3.78;;;16.50;59.30;;;;;;5019811;28;20041;-85
2024/01/09 01:54:23;;;;;;;3.67;3.38;;;16.50;59.40;;;;;;5008264;28;20044;-84
2024/01/09 01:56:49;;;;;;;3.55;3.30;;;16.50;59.50;;;;;;5007007;28;20044;-85
2024/01/09 01:59:16;;;;;;;4.10;3.80;;;16.50;59.40;;;;;;5005080;28;20033;-85
2024/01/09 02:01:44;;;;;;;3.40;3.20;;;16.50;59.60;;;;;;5023147;28;20510;-84
2024/01/09 02:04:10;;;;;;;3.85;3.55;;;16.50;59.50;;;;;;5012189;28;20049;-85
2024/01/09 02:06:36;;;;;;;3.80;3.45;;;16.40;59.50;;;;;;5003228;28;20038;-84
2024/01/09 02:09:02;;;;;;;3.70;3.50;;;16.40;59.40;;;;;;5005540;28;20056;-84
2024/01/09 02:11:27;;;;;;;3.83;3.53;;;16.40;59.50;;;;;;5002672;28;20125;-84
2024/01/09 02:13:53;;;;;;;3.60;3.40;;;16.40;59.50;;;;;;5007994;28;20054;-84
2024/01/09 02:16:18;;;;;;;3.53;3.33;;;16.40;59.50;;;;;;5025397;28;20549;-84
2024/01/09 02:18:44;;;;;;;3.60;3.40;;;16.40;59.60;;;;;;4990668;28;20041;-84
2024/01/09 02:21:09;;;;;;;3.88;3.67;;;16.40;59.70;;;;;;5022453;28;20072;-84
2024/01/09 02:23:35;;;;;;;3.50;3.30;;;16.40;59.70;;;;;;4997595;28;20038;-84
2024/01/09 02:26:01;;;;;;;3.35;3.15;;;16.40;59.50;;;;;;5024570;28;20525;-84
2024/01/09 02:28:36;;;;;;;3.55;3.35;;;16.40;59.60;;;;;;5026262;28;20045;-84
2024/01/09 02:31:02;;;;;;;3.60;3.40;;;16.30;59.60;;;;;;5020802;28;20120;-86
2024/01/09 02:33:27;;;;;;;3.20;3.00;;;16.30;59.50;;;;;;5001538;28;20515;-86
2024/01/09 02:35:53;;;;;;;3.58;3.38;;;16.30;59.60;;;;;;5002249;28;20452;-86
2024/01/09 02:38:20;;;;;;;2.45;2.35;;;16.30;59.70;;;;;;5010474;28;20117;-86
2024/01/09 02:40:45;;;;;;;3.10;2.90;;;16.30;59.70;;;;;;5005160;28;20504;-86
2024/01/09 02:43:11;;;;;;;3.20;3.00;;;16.30;59.70;;;;;;5010651;28;20041;-86
2024/01/09 02:45:36;;;;;;;3.55;3.25;;;16.30;59.70;;;;;;5023911;28;20041;-88
2024/01/09 02:48:02;;;;;;;3.08;2.88;;;16.30;59.70;;;;;;5001693;28;20072;-88
2024/01/09 02:50:27;;;;;;;3.13;2.92;;;16.30;59.70;;;;;;5025718;28;20459;-88
2024/01/09 02:52:53;;;;;;;2.90;2.70;;;16.30;59.80;;;;;;5024750;28;20030;-88
2024/01/09 02:55:18;;;;;;;2.90;2.80;;;16.30;59.70;;;;;;4987567;28;20064;-88
2024/01/09 02:57:44;;;;;;;2.92;2.72;;;16.30;60.60;;;;;;5003580;28;20064;-87
2024/01/09 03:00:10;;;;;;;3.15;2.95;;;16.20;59.90;;;;;;5001757;28;20049;-87
2024/01/09 03:02:36;;;;;;;3.38;3.08;;;16.20;59.80;;;;;;5026489;28;20069;-87
2024/01/09 03:05:03;;;;;;;2.80;2.60;;;16.20;59.90;;;;;;5011028;28;20458;-87
2024/01/09 03:07:29;;;;;;;2.97;2.78;;;16.20;59.80;;;;;;5023751;28;20037;-86
2024/01/09 03:09:54;;;;;;;2.83;2.72;;;16.30;59.80;;;;;;4989549;28;20488;-87
2024/01/09 03:12:20;;;;;;;2.85;2.75;;;16.20;59.80;;;;;;4991058;28;20136;-84
2024/01/09 03:14:45;;;;;;;2.72;2.63;;;16.20;60.10;;;;;;5000723;28;20034;-83
2024/01/09 03:17:11;;;;;;;2.95;2.75;;;16.20;60.00;;;;;;4996334;28;20449;-84
2024/01/09 03:19:37;;;;;;;2.92;2.72;;;16.20;60.00;;;;;;5009272;28;20072;-83
2024/01/09 03:22:03;;;;;;;2.72;2.53;;;16.20;59.90;;;;;;5023417;28;20497;-84
2024/01/09 03:24:28;;;;;;;2.55;2.45;;;16.20;59.90;;;;;;5026475;28;20049;-84
2024/01/09 03:26:54;;;;;;;3.00;2.80;;;16.20;60.00;;;;;;5000981;28;20045;-83
2024/01/09 03:29:19;;;;;;;2.67;2.58;;;16.20;60.10;;;;;;5004655;28;20038;-84
2024/01/09 03:31:45;;;;;;;2.70;2.50;;;16.20;60.10;;;;;;5004234;28;20099;-83
2024/01/09 03:34:10;;;;;;;2.55;2.35;;;16.10;60.20;;;;;;5023800;28;20152;-83
2024/01/09 03:36:38;;;;;;;3.10;2.90;;;16.10;60.10;;;;;;5023944;28;20049;-83
2024/01/09 03:39:04;;;;;;;2.35;2.25;;;16.10;60.00;;;;;;5025431;28;20512;-83
2024/01/09 03:41:30;;;;;;;2.38;2.28;;;16.10;60.10;;;;;;5006151;28;20411;-84
2024/01/09 03:43:56;;;;;;;2.58;2.47;;;16.10;60.30;;;;;;5021805;28;20128;-85
2024/01/09 03:46:21;;;;;;;3.85;2.75;;;16.10;60.00;;;;;;5022729;28;20069;-85
2024/01/09 03:48:48;;;;;;;2.47;2.38;;;16.10;60.10;;;;;;4987724;28;20050;-85
2024/01/09 03:51:13;;;;;;;2.58;2.47;;;16.10;60.00;;;;;;4994472;28;20066;-85
2024/01/09 03:53:39;;;;;;;2.58;2.38;;;16.10;60.90;;;;;;4993607;28;20077;-86
2024/01/09 03:56:05;;;;;;;2.30;2.20;;;16.10;60.10;;;;;;5020432;28;20044;-84
2024/01/09 03:58:30;;;;;;;2.72;2.35;;;16.10;60.10;;;;;;5008268;28;20045;-83
2024/01/09 04:00:56;;;;;;;2.20;2.10;;;16.00;60.10;;;;;;5024373;28;20483;-83
2024/01/09 04:03:22;;;;;;;2.20;2.10;;;16.00;60.10;;;;;;5021960;28;20056;-83
2024/01/09 04:05:48;;;;;;;2.38;2.28;;;16.00;60.40;;;;;;5023773;28;20136;-83
2024/01/09 04:08:14;;;;;;;2.10;2.00;;;16.00;60.40;;;;;;5007712;28;20128;-83
2024/01/09 04:10:40;;;;;;;2.28;2.17;;;16.00;60.20;;;;;;5036042;28;20043;-83
2024/01/09 04:13:06;;;;;;;2.10;2.00;;;16.00;60.30;;;;;;5040578;28;20455;-83
2024/01/09 04:15:32;;;;;;;2.13;2.03;;;16.00;60.40;;;;;;5025296;28;20127;-82
2024/01/09 04:17:57;;;;;;;2.08;1.98;;;16.00;60.40;;;;;;4998468;28;20093;-82
2024/01/09 04:20:23;;;;;;;2.00;1.90;;;16.00;60.40;;;;;;5041605;28;20057;-83
2024/01/09 04:22:49;;;;;;;2.20;2.10;;;16.00;60.40;;;;;;4986410;28;20121;-83
2024/01/09 04:25:14;;;;;;;2.17;2.08;;;16.00;60.30;;;;;;5007640;28;20048;-83
2024/01/09 04:27:40;;;;;;;1.98;1.88;;;15.90;60.10;;;;;;4987820;28;20555;-83
2024/01/09 04:30:06;;;;;;;2.53;2.33;;;16.00;60.30;;;;;;5013579;28;20053;-83
2024/01/09 04:32:32;;;;;;;1.83;1.73;;;15.90;60.40;;;;;;5007128;28;20050;-82
2024/01/09 04:34:57;;;;;;;2.08;1.88;;;16.00;60.10;;;;;;5023193;28;20071;-82
2024/01/09 04:37:23;;;;;;;1.92;1.83;;;16.00;60.20;;;;;;5020511;28;20041;-82
2024/01/09 04:39:49;;;;;;;2.00;1.90;;;16.00;60.30;;;;;;4982667;28;20539;-82
2024/01/09 04:42:15;;;;;;;1.85;1.75;;;16.00;60.20;;;;;;5004097;28;20069;-82
2024/01/09 04:44:40;;;;;;;2.42;2.33;;;16.00;60.10;;;;;;5009457;28;20037;-85
2024/01/09 04:47:06;;;;;;;1.70;1.60;;;15.90;60.30;;;;;;5015564;28;20567;-84
2024/01/09 04:49:32;;;;;;;1.80;1.70;;;15.90;60.20;;;;;;5024502;28;20049;-84
2024/01/09 04:51:57;;;;;;;2.00;1.90;;;15.90;60.20;;;;;;5010332;28;20061;-84
2024/01/09 04:54:23;;;;;;;1.95;1.85;;;15.90;60.10;;;;;;5005886;28;20103;-82
2024/01/09 04:56:48;;;;;;;2.13;2.03;;;15.90;60.50;;;;;;5026339;28;20065;-82
2024/01/09 04:59:14;;;;;;;2.10;2.00;;;15.90;60.70;;;;;;4991132;28;20400;-82
2024/01/09 05:01:39;;;;;;;1.92;1.83;;;15.90;60.30;;;;;;5015751;28;20060;-84
2024/01/09 05:04:05;;;;;;;2.00;1.90;;;15.90;61.10;;;;;;5039307;28;20558;-84
2024/01/09 05:06:30;;;;;;;1.75;1.65;;;15.90;60.30;;;;;;4993632;28;20100;-84
2024/01/09 05:08:56;;;;;;;1.70;1.60;;;15.90;60.50;;;;;;5022576;28;20042;-84
2024/01/09 05:11:22;;;;;;;1.70;1.60;;;15.80;60.30;;;;;;5011898;28;20152;-84
2024/01/09 05:13:47;;;;;;;1.83;1.73;;;15.80;60.30;;;;;;5001677;28;20057;-86
2024/01/09 05:16:13;;;;;;;2.05;1.95;;;15.90;60.30;;;;;;5022018;28;20135;-87
2024/01/09 05:18:40;;;;;;;1.90;1.80;;;15.80;60.50;;;;;;5029074;28;20045;-86
2024/01/09 05:21:05;;;;;;;1.73;1.63;;;15.80;60.50;;;;;;5006886;28;20053;-86
2024/01/09 05:23:31;;;;;;;1.80;1.70;;;15.80;60.40;;;;;;5027863;28;20052;-86
2024/01/09 05:25:56;;;;;;;1.98;1.88;;;15.80;60.50;;;;;;4996625;28;20040;-86
2024/01/09 05:28:22;;;;;;;1.88;1.77;;;15.80;60.50;;;;;;4983931;28;20045;-86
2024/01/09 05:30:48;;;;;;;1.90;1.80;;;15.80;61.70;;;;;;5001444;28;20156;-85
2024/01/09 05:33:13;;;;;;;1.83;1.73;;;15.80;60.30;;;;;;4997197;28;20104;-84
2024/01/09 05:35:39;;;;;;;2.00;1.90;;;15.80;60.50;;;;;;5019817;28;20554;-84
2024/01/09 05:38:04;;;;;;;1.50;1.40;;;15.80;60.60;;;;;;5005921;28;20046;-84
2024/01/09 05:40:30;;;;;;;1.65;1.55;;;15.80;60.50;;;;;;5013495;28;20103;-85
2024/01/09 05:42:55;;;;;;;1.67;1.58;;;15.80;60.40;;;;;;4999985;28;20049;-86
2024/01/09 05:45:21;;;;;;;1.75;1.65;;;15.80;60.60;;;;;;4998551;28;20037;-84
2024/01/09 05:47:46;;;;;;;1.42;1.42;;;15.80;60.60;;;;;;5023053;28;20048;-83
2024/01/09 05:50:12;;;;;;;1.50;1.40;;;15.80;61.60;;;;;;5011830;28;20065;-87
2024/01/09 05:52:38;;;;;;;2.10;2.00;;;15.80;60.70;;;;;;5028286;28;20046;-84
2024/01/09 05:55:04;;;;;;;1.40;1.30;;;15.80;60.70;;;;;;5028297;28;20120;-84
2024/01/09 05:57:30;;;;;;;1.80;1.70;;;15.80;60.90;;;;;;5021667;28;20049;-84
2024/01/09 05:59:55;;;;;;;1.38;1.38;;;15.80;60.80;;;;;;4999711;28;20045;-84
2024/01/09 06:02:22;;;;;;;1.50;1.50;;;15.70;60.50;;;;;;5004294;28;21649;-84
2024/01/09 06:04:47;;;;;;;1.23;1.23;;;15.70;60.40;;;;;;5037368;28;20080;-87
2024/01/09 06:07:14;;;;;;;1.42;1.33;;;15.70;60.60;;;;;;5017727;28;20392;-88
2024/01/09 06:09:40;;;;;;;1.30;1.30;;;15.70;61.00;;;;;;5006990;28;20521;-87
2024/01/09 06:12:06;;;;;;;1.48;1.38;;;15.70;61.70;;;;;;4986871;28;20045;-86
2024/01/09 06:14:32;;;;;;;1.67;1.58;;;15.80;60.80;;;;;;5008558;28;20505;-86
2024/01/09 06:16:57;;;;;;;1.40;1.30;;;15.80;60.80;;;;;;5028355;28;20029;-85
2024/01/09 06:19:23;;;;;;;2.20;1.85;;;15.70;60.90;;;;;;5022917;28;20557;-88
2024/01/09 06:21:48;;;;;;;1.63;1.52;;;15.70;61.10;;;;;;5008473;28;20491;-87
2024/01/09 06:24:14;;;;;;;1.55;1.45;;;15.70;60.90;;;;;;5013191;28;20049;-86
2024/01/09 06:26:39;;;;;;;1.45;1.35;;;15.70;61.30;;;;;;5015090;28;20036;-87
2024/01/09 06:29:08;;;;;;;1.50;1.40;;;15.70;61.00;;;;;;5019702;28;20058;-86
2024/01/09 06:31:33;;;;;;;1.38;1.27;;;15.70;61.10;;;;;;5018369;28;20047;-85
2024/01/09 06:33:59;;;;;;;1.70;1.60;;;15.70;61.10;;;;;;5009473;28;20038;-86
2024/01/09 06:36:25;;;;;;;1.75;1.65;;;15.70;61.00;;;;;;5030890;28;20038;-84
2024/01/09 06:38:50;;;;;;;1.83;1.73;;;15.70;61.00;;;;;;5023061;28;20043;-84
2024/01/09 06:41:16;;;;;;;1.70;1.60;;;15.70;61.20;;;;;;5002580;28;20698;-87
2024/01/09 06:44:09;;;;;;;1.60;1.50;;;15.70;61.30;;;;;;5011818;28;20053;-87
2024/01/09 06:46:35;;;;;;;1.70;1.60;;;15.60;60.80;;;;;;5018970;28;20161;-85
2024/01/09 06:49:03;;;;;;;1.65;1.55;;;15.60;60.60;;;;;;5018579;28;20053;-85
2024/01/09 06:51:30;;;;;;;1.65;1.55;;;15.60;60.30;;;;;;5019495;28;20037;-86
2024/01/09 06:53:55;;;;;;;1.20;1.20;;;15.60;61.00;;;;;;5022608;28;20450;-86
2024/01/09 06:56:21;;;;;;;6.45;1.52;;;15.60;61.00;;;;;;5000150;28;20508;-84
2024/01/09 06:58:47;;;;;;;1.88;1.77;;;15.60;60.40;;;;;;4994359;28;20080;-82
2024/01/09 07:01:12;;;;;;;1.50;1.40;;;15.60;60.40;;;;;;5000358;28;20397;-83
2024/01/09 07:03:38;;;;;;;1.30;1.30;;;15.60;61.00;;;;;;5015308;28;20068;-83
2024/01/09 07:06:04;;;;;;;1.85;1.65;;;15.50;60.00;;;;;;5034257;28;20043;-86
2024/01/09 07:08:29;;;;;;;1.60;1.50;;;15.50;59.90;;;;;;5021844;28;20419;-85
2024/01/09 07:10:56;;;;;;;1.38;1.38;;;15.50;59.80;;;;;;5007326;28;20573;-84
2024/01/09 07:13:22;;;;;;;1.50;1.40;;;15.50;59.90;;;;;;5009621;28;20041;-85
2024/01/09 07:15:48;;;;;;;1.13;1.10;;;15.50;59.80;;;;;;5023371;28;20038;-88
2024/01/09 07:18:14;;;;;;;1.70;1.60;;;15.50;59.70;;;;;;5011558;28;20555;-87
2024/01/09 07:20:39;;;;;;;1.25;1.25;;;15.50;59.70;;;;;;4999827;28;20251;-83
2024/01/09 07:23:05;;;;;;;1.60;1.50;;;15.50;59.70;;;;;;5008087;28;20061;-85
2024/01/09 07:25:31;;;;;;;3.53;1.63;;;15.50;60.40;;;;;;4997257;28;20109;-86
2024/01/09 07:27:56;;;;;;;1.67;1.58;;;15.50;60.00;;;;;;5004844;28;20453;-85
2024/01/09 07:30:22;;;;;;;1.70;1.60;;;15.60;60.70;;;;;;5019633;28;20085;-83
2024/01/09 07:32:47;;;;;;;4.68;1.50;;;15.60;60.40;;;;;;5024289;28;20034;-87
2024/01/09 07:35:13;;;;;;;2.33;1.50;;;15.60;61.70;;;;;;5023488;28;20487;-86
2024/01/09 07:37:39;;;;;;;2.05;1.58;;;15.60;60.20;;;;;;5012890;28;20513;-86
2024/01/09 07:40:05;;;;;;;1.80;1.70;;;15.60;60.50;;;;;;5025121;28;20049;-86
2024/01/09 07:42:31;;;;;;;1.50;1.40;;;15.60;60.80;;;;;;5006582;28;20512;-86
2024/01/09 07:44:57;;;;;;;1.80;1.52;;;15.60;60.80;;;;;;5019226;28;20088;-86
2024/01/09 07:47:23;;;;;;;1.25;1.15;;;15.60;60.70;;;;;;4995293;28;20088;-86
2024/01/09 07:49:49;;;;;;;1.27;1.20;;;15.60;60.80;;;;;;5005403;28;20139;-87
2024/01/09 07:52:15;;;;;;;1.42;1.35;;;15.60;60.90;;;;;;5017264;28;20578;-86
2024/01/09 07:54:41;;;;;;;1.90;1.77;;;15.50;60.90;;;;;;5027180;28;20041;-86
2024/01/09 07:57:07;;;;;;;1.63;1.52;;;15.50;61.10;;;;;;5018045;28;20041;-86
2024/01/09 07:59:33;;;;;;;2.00;1.42;;;15.50;61.20;;;;;;5019090;28;20049;-87
2024/01/09 08:02:00;;;;;;;1.70;1.60;;;15.50;61.00;;;;;;5008995;28;20590;-86
2024/01/09 08:04:25;;;;;;;1.33;1.33;;;15.50;61.30;;;;;;5002908;28;20042;-86
2024/01/09 08:06:51;;;;;;;1.50;1.40;;;15.50;61.40;;;;;;5015621;28;20098;-86
2024/01/09 08:09:17;;;;;;;2.35;1.52;;;15.50;61.40;;;;;;5018166;28;20049;-86
2024/01/09 08:11:46;;;;;;;1.65;1.55;;;15.50;61.50;;;;;;5007864;28;20038;-86
2024/01/09 08:14:13;;;;;;;1.20;1.20;;;15.50;61.70;;;;;;5024087;28;20095;-86
2024/01/09 08:16:38;;;;;;;1.50;1.40;;;15.50;61.70;;;;;;4988823;28;20046;-86
2024/01/09 08:19:04;;;;;;;1.45;1.30;;;15.50;61.70;;;;;;5039903;28;20092;-86
2024/01/09 08:21:31;;;;;;;1.30;1.20;;;15.50;61.70;;;;;;5015172;28;20141;-86
2024/01/09 08:23:57;;;;;;;1.50;1.40;;;15.50;61.80;;;;;;5034098;28;20077;-86
2024/01/09 08:26:22;;;;;;;1.58;1.48;;;15.50;62.00;;;;;;5013397;28;20478;-85
2024/01/09 08:28:48;;;;;;;1.67;1.15;;;15.50;62.10;;;;;;5010926;28;20038;-86
2024/01/09 08:31:13;;;;;;;1.10;1.10;;;15.50;62.00;;;;;;5015904;28;20058;-85
2024/01/09 08:33:39;;;;;;;1.20;1.20;;;15.40;61.90;;;;;;5020092;28;20045;-86
2024/01/09 08:36:05;;;;;;;1.20;1.20;;;15.40;62.10;;;;;;5041647;28;20053;-85
2024/01/09 08:38:30;;;;;;;1.35;1.33;;;15.50;62.00;;;;;;5003036;28;20452;-85
2024/01/09 08:40:56;;;;;;;1.10;1.10;;;15.50;62.10;;;;;;5022469;28;20559;-85
2024/01/09 08:43:22;;;;;;;1.23;1.10;;;15.40;62.00;;;;;;5011682;28;20033;-85
2024/01/09 08:45:49;;;;;;;1.73;1.63;;;15.40;62.20;;;;;;4990429;28;20042;-86
2024/01/09 08:48:15;;;;;;;1.17;1.17;;;15.40;62.20;;;;;;4990136;28;20046;-85
2024/01/09 08:50:41;;;;;;;1.58;1.30;;;15.40;62.00;;;;;;5005392;28;20038;-85
2024/01/09 08:53:07;;;;;;;1.27;1.20;;;15.40;62.20;;;;;;4976509;28;20030;-86
2024/01/09 08:55:33;;;;;;;1.60;1.50;;;15.40;62.10;;;;;;5028643;28;20072;-85
2024/01/09 08:57:59;;;;;;;4.18;1.63;;;15.40;62.10;;;;;;5026583;28;20042;-85
2024/01/09 09:00:24;;;;;;;1.20;1.20;;;15.40;62.20;;;;;;5013578;28;20049;-85
2024/01/09 09:02:50;;;;;;;1.30;1.30;;;15.40;62.20;;;;;;5017825;28;21196;-86
2024/01/09 09:05:16;;;;;;;1.25;1.25;;;15.40;62.50;;;;;;5026673;28;20053;-85
2024/01/09 09:07:42;;;;;;;1.30;1.30;;;15.40;62.50;;;;;;5002383;28;20049;-86
2024/01/09 09:10:07;;;;;;;1.45;1.35;;;15.40;62.40;;;;;;5022445;28;20079;-85
2024/01/09 09:12:33;;;;;;;1.65;1.55;;;15.40;62.50;;;;;;4976473;28;20140;-85
2024/01/09 09:14:59;;;;;;;1.30;1.30;;;15.40;62.30;;;;;;4993605;28;20042;-84
2024/01/09 09:17:25;;;;;;;1.55;1.45;;;15.40;62.30;;;;;;5000657;28;20423;-85
2024/01/09 09:19:50;;;;;;;1.58;1.48;;;15.40;62.10;;;;;;5013817;28;20045;-85
2024/01/09 09:22:16;;;;;;;1.70;1.60;;;15.40;62.30;;;;;;5012513;28;20053;-85
2024/01/09 09:24:42;;;;;;;1.38;1.30;;;15.40;62.20;;;;;;5018977;28;20064;-85
2024/01/09 09:27:08;;;;;;;1.50;1.40;;;15.40;62.30;;;;;;5004814;28;20062;-85
2024/01/09 09:29:33;;;;;;;1.50;1.40;;;15.40;62.30;;;;;;5025552;28;20176;-85
2024/01/09 09:31:59;;;;;;;1.60;1.50;;;15.40;62.10;;;;;;5014231;28;20132;-85
2024/01/09 09:34:25;;;;;;;1.67;1.58;;;15.40;62.30;;;;;;5006672;28;20476;-85
2024/01/09 09:36:50;;;;;;;1.40;1.40;;;15.40;62.50;;;;;;5019170;28;20510;-85
2024/01/09 09:39:16;;;;;;;1.27;1.27;;;15.30;63.20;;;;;;5019447;28;20065;-85
2024/01/09 09:41:46;;;;;;;1.40;1.30;;;15.30;62.50;;;;;;5004962;28;20585;-86
2024/01/09 09:44:13;;;;;;;1.42;1.13;;;15.40;62.50;;;;;;5043969;28;20034;-85
2024/01/09 09:46:39;;;;;;;1.20;1.20;;;15.30;62.50;;;;;;5007488;28;20025;-85
2024/01/09 09:49:04;;;;;;;1.63;1.52;;;15.30;62.40;;;;;;5005734;28;20503;-85
2024/01/09 09:51:30;;;;;;;1.33;1.10;;;15.40;62.50;;;;;;4992560;28;20441;-85
2024/01/09 09:53:55;;;;;;;1.30;1.30;;;15.40;62.30;;;;;;4994399;28;20380;-85
2024/01/09 09:56:21;;;;;;;1.27;1.20;;;15.40;62.40;;;;;;5012830;28;20038;-85
2024/01/09 09:58:46;;;;;;;1.25;1.20;;;15.30;62.30;;;;;;5009278;28;20069;-85
2024/01/09 10:01:13;;;;;;;1.30;1.30;;;15.30;62.40;;;;;;5011932;28;20112;-85
2024/01/09 10:03:44;;;;;;;1.15;1.15;;;15.40;62.40;;;;;;5018247;28;20037;-86
2024/01/09 10:06:10;;;;;;;1.20;1.20;;;15.40;62.30;;;;;;5021021;28;20034;-85
2024/01/09 10:08:36;;;;;;;1.60;1.50;;;15.30;62.20;;;;;;5021126;28;20565;-85
2024/01/09 10:11:01;;;;;;;1.40;1.40;;;15.30;62.40;;;;;;5019753;28;20038;-85
2024/01/09 10:13:27;;;;;;;1.40;1.30;;;15.30;62.50;;;;;;5015088;28;20030;-85
2024/01/09 10:15:57;;;;;;;1.40;1.30;;;15.30;62.20;;;;;;4997011;28;20132;-85
2024/01/09 10:18:23;;;;;;;1.25;1.25;;;15.30;62.20;;;;;;5012596;28;20045;-85
2024/01/09 10:20:48;;;;;;;1.38;1.38;;;15.30;62.20;;;;;;5010702;28;20026;-86
2024/01/09 10:23:14;;;;;;;1.25;1.25;;;15.30;62.30;;;;;;5010106;28;20041;-85
2024/01/09 10:25:40;;;;;;;1.40;1.30;;;15.30;62.30;;;;;;5007393;28;20042;-85
2024/01/09 10:28:08;;;;;;;1.20;1.20;;;15.30;62.10;;;;;;5049223;28;20116;-85
2024/01/09 10:30:34;;;;;;;1.40;1.30;;;15.30;62.40;;;;;;5014626;28;20092;-86
2024/01/09 10:32:59;;;;;;;1.42;1.35;;;15.30;62.40;;;;;;5012699;28;20033;-85
2024/01/09 10:35:26;;;;;;;1.10;1.10;;;15.30;62.40;;;;;;5010567;28;20121;-86
2024/01/09 10:37:55;;;;;;;1.25;1.15;;;15.30;62.40;;;;;;5027980;28;20030;-85
2024/01/09 10:40:27;;;;;;;2.00;1.90;;;15.30;62.70;;;;;;5007274;28;20061;-85
2024/01/09 10:42:52;;;;;;;1.80;1.70;;;15.20;60.60;;;;;;5024509;28;20176;-85
2024/01/09 10:45:19;;;;;;;1.92;1.80;;;15.20;60.90;;;;;;4979026;28;20066;-85
2024/01/09 10:47:45;;;;;;;1.58;1.48;;;15.30;60.90;;;;;;5012761;28;20150;-85
2024/01/09 10:50:10;;;;;;;1.70;1.60;;;15.30;62.10;;;;;;4998013;28;20468;-85
2024/01/09 10:52:36;;;;;;;1.63;1.52;;;15.30;61.60;;;;;;5015184;28;20614;-82
2024/01/09 10:55:02;;;;;;;1.15;1.15;;;15.30;61.40;;;;;;4999661;28;20068;-81
2024/01/09 10:57:28;;;;;;;1.77;1.67;;;15.30;61.70;;;;;;5027354;28;20534;-83
2024/01/09 10:59:54;;;;;;;1.70;1.60;;;15.30;61.90;;;;;;5001347;28;20030;-81
2024/01/09 11:02:22;;;;;;;1.63;1.52;;;15.30;61.50;;;;;;4995032;28;20050;-82
2024/01/09 11:04:48;;;;;;;1.33;1.33;;;15.30;61.50;;;;;;5001645;28;20185;-80
2024/01/09 11:07:15;;;;;;;1.73;1.63;;;15.30;61.80;;;;;;5017686;28;20038;-79
2024/01/09 11:09:47;;;;;;;2.58;1.50;;;15.40;61.20;;;;;;4997037;28;20132;-80
2024/01/09 11:12:23;;;;;;;1.75;1.48;;;15.40;61.50;;;;;;5026156;28;20542;-80
2024/01/09 11:15:05;;;;;;;1.20;1.10;;;15.50;61.40;;;;;;5011227;28;20516;-80
2024/01/09 11:17:31;;;;;;;1.63;1.52;;;15.50;61.50;;;;;;5019358;28;20029;-80
2024/01/09 11:19:57;;;;;;;1.50;1.40;;;15.50;61.70;;;;;;4986418;28;20538;-80
2024/01/09 11:22:22;;;;;;;2.05;1.30;;;15.50;61.80;;;;;;4999396;28;20053;-79
2024/01/09 11:24:52;;;;;;;1.35;1.30;;;15.50;61.70;;;;;;5014262;28;20496;-79
2024/01/09 11:27:18;;;;;;;2.03;1.92;;;15.60;61.50;;;;;;5015019;28;20045;-79
2024/01/09 11:29:46;;;;;;;1.52;1.42;;;15.60;61.50;;;;;;5021313;28;20049;-80
2024/01/09 11:32:12;;;;;;;1.50;1.40;;;15.50;61.20;;;;;;5018785;28;20069;-81
2024/01/09 11:34:41;;;;;;;1.75;1.65;;;15.50;61.60;;;;;;5021788;28;20463;-80
2024/01/09 11:37:11;;;;;;;1.80;1.70;;;15.60;61.40;;;;;;5023445;28;20553;-80
2024/01/09 11:39:38;;;;;;;4.00;2.15;;;15.60;61.20;;;;;;5022896;28;20158;-80
2024/01/09 11:42:03;;;;;;;2.65;2.45;;;15.70;62.60;;;;;;5005926;28;20069;-81
2024/01/09 11:44:29;;;;;;;2.75;2.55;;;15.70;62.40;;;;;;4998381;28;20123;-80
2024/01/09 11:46:55;;;;;;;2.35;2.25;;;15.70;62.80;;;;;;5006267;28;20041;-81
2024/01/09 11:49:20;;;;;;;2.88;2.67;;;15.70;61.90;;;;;;5037832;28;20522;-80
2024/01/09 11:51:46;;;;;;;2.58;2.38;;;15.70;61.00;;;;;;4997241;28;20132;-80
2024/01/09 11:54:12;;;;;;;3.00;2.70;;;15.70;60.30;;;;;;4997301;28;20103;-81
2024/01/09 11:56:38;;;;;;;6.10;2.97;;;15.70;62.80;;;;;;5016906;28;20037;-81
2024/01/09 11:59:04;;;;;;;7.85;3.70;;;15.70;67.10;;;;;;5020945;28;20045;-80
2024/01/09 12:01:29;;;;;;;6.53;3.50;;;15.70;66.10;;;;;;5025864;28;20050;-81
2024/01/09 12:03:56;;;;;;;5.05;3.40;;;15.60;65.00;;;;;;4997390;28;20042;-80
2024/01/09 12:06:22;;;;;;;11.32;4.90;;;15.70;65.40;;;;;;4995899;28;20100;-80
2024/01/09 12:08:51;;;;;;;10.48;5.25;;;15.70;64.20;;;;;;4766043;28;10001048;-83
2024/01/09 12:11:16;;;;;;;12.02;6.10;;;15.70;64.10;;;;;;4999021;28;20648;-85
2024/01/09 12:13:43;;;;;;;12.57;5.88;;;15.70;63.70;;;;;;4995575;28;20045;-81
2024/01/09 12:16:18;;;;;;;9.38;5.28;;;15.70;63.90;;;;;;5009812;28;20064;-80
2024/01/09 12:18:49;;;;;;;11.38;5.10;;;15.70;64.00;;;;;;4997458;28;20133;-81
2024/01/09 12:21:15;;;;;;;10.05;5.82;;;15.70;63.20;;;;;;4982568;28;20042;-81
2024/01/09 12:23:41;;;;;;;10.05;5.70;;;15.70;62.90;;;;;;5010198;28;20157;-81
2024/01/09 12:26:06;;;;;;;10.32;5.63;;;15.70;62.80;;;;;;5008975;28;20125;-81
2024/01/09 12:28:32;;;;;;;9.10;5.22;;;15.70;62.80;;;;;;4998645;28;20038;-80
2024/01/09 12:31:01;;;;;;;8.63;5.10;;;15.70;62.70;;;;;;4998861;28;20042;-80
2024/01/09 12:33:29;;;;;;;9.30;5.20;;;15.70;62.70;;;;;;5012513;28;20045;-80
2024/01/09 12:35:54;;;;;;;6.75;4.80;;;15.70;62.90;;;;;;4982764;28;20038;-80
2024/01/09 12:38:22;;;;;;;8.52;4.90;;;15.70;63.10;;;;;;4981502;28;20518;-80